Time;durP1;ratioP1;P1;durP2;ratioP2;P2;SDS_P1;SDS_P2;PMS_P1;PMS_P2;Temp;Humidity;BMP_temperature;BMP_pressure;BME280_temperature;BME280_humidity;BME280_pressure;Samples;Min_cycle;Max_cycle;Signal;HPM_P1;HPM_P2
2022/08/12 00:44:26;;;;;;;5.40;3.00;;;;;;;21.41;100.00;101977.31;5052750;28;20036;-69
2022/08/12 00:47:00;;;;;;;10.68;2.85;;;;;;;21.39;100.00;101981.78;5052761;28;20025;-68
2022/08/12 00:49:28;;;;;;;5.15;2.92;;;;;;;21.38;100.00;101980.03;5052601;28;20029;-68
2022/08/12 00:52:07;;;;;;;5.28;2.92;;;;;;;21.41;100.00;101981.78;5054772;28;20111;-68
2022/08/12 00:54:43;;;;;;;8.38;3.10;;;;;;;21.41;100.00;101980.00;5055432;28;20103;-68
2022/08/12 00:57:23;;;;;;;5.22;2.78;;;;;;;21.37;100.00;101979.13;5056395;28;20029;-69
2022/08/12 00:59:58;;;;;;;3.97;2.85;;;;;;;21.41;100.00;101979.13;5056157;28;20079;-68
2022/08/12 01:02:30;;;;;;;9.30;3.53;;;;;;;21.31;100.00;101972.94;5056014;28;20437;-68
2022/08/12 01:13:20;;;;;;;8.98;4.00;;;;;;;21.21;100.00;101989.09;5055280;28;20072;-68
2022/08/12 01:15:52;;;;;;;6.97;3.30;;;;;;;21.25;100.00;101981.06;5055975;28;20029;-68
2022/08/12 01:18:20;;;;;;;12.82;3.50;;;;;;;21.13;100.00;101982.94;5055885;28;20053;-68
2022/08/12 01:21:02;;;;;;;9.10;3.30;;;;;;;21.03;100.00;101978.56;5055816;28;20039;-67
2022/08/12 01:23:48;;;;;;;4.45;3.50;;;;;;;20.96;100.00;101992.88;5055775;28;20108;-68
2022/08/12 01:26:24;;;;;;;4.70;3.25;;;;;;;20.86;100.00;101981.38;5055783;28;20029;-69
2022/08/12 01:28:56;;;;;;;5.18;3.30;;;;;;;20.84;100.00;101986.75;5055876;28;20041;-67
2022/08/12 01:31:21;;;;;;;4.30;3.47;;;;;;;20.78;100.00;101984.13;5055745;28;20021;-69
2022/08/12 01:34:05;;;;;;;3.63;2.97;;;;;;;20.75;100.00;101978.78;5055521;28;20492;-69
2022/08/12 01:36:44;;;;;;;5.20;3.78;;;;;;;20.67;100.00;101985.97;5055393;28;20021;-69
2022/08/12 01:39:12;;;;;;;9.00;3.45;;;;;;;20.60;100.00;101984.22;5055578;28;20027;-68
2022/08/12 01:41:44;;;;;;;5.10;3.70;;;;;;;20.55;100.00;101978.91;5055435;28;20052;-68
2022/08/12 01:44:12;;;;;;;6.90;3.83;;;;;;;20.43;100.00;101985.25;5055375;28;20025;-68
2022/08/12 01:46:52;;;;;;;5.30;3.75;;;;;;;20.39;100.00;101981.69;5055330;28;20038;-68
2022/08/12 01:49:40;;;;;;;7.45;3.35;;;;;;;20.36;100.00;101975.47;5055504;28;20520;-68
2022/08/12 01:52:11;;;;;;;7.53;3.47;;;;;;;20.36;100.00;101970.09;5044694;28;20123;-68
2022/08/12 01:54:44;;;;;;;5.50;3.83;;;;;;;20.34;100.00;101966.56;5055344;28;20028;-69
2022/08/12 01:57:20;;;;;;;6.63;3.95;;;;;;;20.31;100.00;101967.47;5055276;28;20056;-68
2022/08/12 01:59:58;;;;;;;8.60;4.10;;;;;;;20.30;100.00;101967.50;5055257;28;20396;-69
2022/08/12 02:02:38;;;;;;;8.20;3.95;;;;;;;20.27;100.00;101963.03;5055153;28;20047;-70
2022/08/12 02:11:31;;;;;;;5.63;3.78;;;;;;;20.33;100.00;101959.44;5054964;28;20427;-68
2022/08/12 02:14:02;;;;;;;7.40;4.05;;;;;;;20.37;100.00;101955.84;5054961;28;20021;-68
2022/08/12 02:16:52;;;;;;;4.75;3.75;;;;;;;20.38;100.00;101960.31;5054832;28;20033;-68
2022/08/12 02:19:41;;;;;;;7.13;3.92;;;;;;;20.44;100.00;101952.22;5054921;28;20021;-68
2022/08/12 02:22:39;;;;;;;6.25;4.13;;;;;;;20.49;100.00;101961.13;5054882;28;20033;-68
2022/08/12 02:25:12;;;;;;;7.32;4.40;;;;;;;20.50;100.00;101960.22;5054557;28;20028;-68
2022/08/12 02:27:41;;;;;;;7.25;4.07;;;;;;;20.44;100.00;101957.56;5054696;28;20430;-68
2022/08/12 02:30:10;;;;;;;6.55;3.95;;;;;;;20.54;100.00;101967.31;5054565;28;20377;-68
2022/08/12 02:32:43;;;;;;;5.78;3.92;;;;;;;20.61;100.00;101961.94;5053241;28;20024;-68
2022/08/12 02:35:13;;;;;;;5.43;3.95;;;;;;;20.55;100.00;101952.16;5054560;28;20020;-69
2022/08/12 02:37:40;;;;;;;5.55;4.30;;;;;;;20.44;100.00;101952.22;5054361;28;20079;-68
2022/08/12 02:40:08;;;;;;;4.53;3.55;;;;;;;20.45;100.00;101954.00;5054433;28;20029;-69
2022/08/12 02:42:34;;;;;;;6.38;3.65;;;;;;;20.46;100.00;101950.44;5054240;28;20020;-69
2022/08/12 02:45:05;;;;;;;5.65;4.15;;;;;;;20.40;100.00;101950.47;5054394;28;20063;-69
2022/08/12 02:47:33;;;;;;;11.57;3.80;;;;;;;20.41;100.00;101946.91;5054400;28;20032;-68
2022/08/12 02:50:02;;;;;;;13.20;3.97;;;;;;;20.35;100.00;101947.84;5052968;28;20071;-68
2022/08/12 02:52:31;;;;;;;5.93;4.00;;;;;;;20.36;100.00;101951.41;5054009;28;20033;-68
2022/08/12 02:55:06;;;;;;;7.95;3.90;;;;;;;20.36;100.00;101943.38;5053955;28;20016;-69
2022/08/12 02:57:32;;;;;;;7.15;3.60;;;;;;;20.37;100.00;101940.72;5054305;28;20033;-69
2022/08/12 03:00:02;;;;;;;7.53;4.30;;;;;;;20.36;100.00;101936.25;5053994;28;20534;-68
2022/08/12 03:02:30;;;;;;;5.97;4.13;;;;;;;20.26;100.00;101933.66;5054101;28;20045;-69
2022/08/12 03:04:57;;;;;;;7.60;4.20;;;;;;;20.24;100.00;101933.69;5053783;28;20080;-67
2022/08/12 03:07:23;;;;;;;9.20;4.45;;;;;;;20.27;100.00;101930.09;5053801;28;20060;-68
2022/08/12 03:10:04;;;;;;;5.50;4.63;;;;;;;20.28;100.00;101939.88;5054014;28;20075;-69
2022/08/12 03:12:35;;;;;;;5.57;3.78;;;;;;;20.29;100.00;101925.63;5053936;28;20083;-69
2022/08/12 03:15:05;;;;;;;9.60;4.78;;;;;;;20.29;100.00;101931.84;5052049;28;20423;-69
2022/08/12 03:17:42;;;;;;;5.25;4.35;;;;;;;20.26;100.00;101928.31;5053727;28;20032;-69
2022/08/12 03:20:09;;;;;;;8.15;4.20;;;;;;;20.16;100.00;101920.34;5053559;28;20429;-69
2022/08/12 03:22:39;;;;;;;12.82;3.95;;;;;;;20.10;100.00;101925.72;5053559;28;20025;-69
2022/08/12 03:25:05;;;;;;;7.07;4.18;;;;;;;20.01;100.00;101928.47;5053338;28;20057;-68
2022/08/12 03:27:30;;;;;;;9.68;4.13;;;;;;;20.03;100.00;101924.00;5053537;28;20057;-68
2022/08/12 03:29:57;;;;;;;5.72;4.15;;;;;;;20.08;100.00;101926.66;5053491;28;20029;-69
2022/08/12 03:32:24;;;;;;;6.55;4.25;;;;;;;20.05;100.00;101924.88;5053362;28;20024;-68
2022/08/12 03:34:51;;;;;;;6.43;4.32;;;;;;;20.07;100.00;101920.41;5053471;28;20023;-68
2022/08/12 03:37:19;;;;;;;5.00;4.13;;;;;;;19.99;100.00;101927.56;5053325;28;20078;-68
2022/08/12 03:39:45;;;;;;;8.50;4.15;;;;;;;19.88;100.00;101920.50;5052120;28;20500;-68
2022/08/12 03:42:29;;;;;;;8.98;4.60;;;;;;;19.82;100.00;101919.66;5053388;28;20129;-68
2022/08/12 04:01:56;;;;;;;6.53;4.35;;;;;;;19.60;100.00;101919.72;5053381;28;20043;-69
2022/08/12 04:04:33;;;;;;;7.65;4.45;;;;;;;19.61;100.00;101917.91;5052894;28;20072;-68
2022/08/12 04:07:08;;;;;;;7.68;4.68;;;;;;;19.58;100.00;101913.47;5053106;28;20021;-68
2022/08/12 04:09:36;;;;;;;10.50;4.82;;;;;;;19.50;100.00;101917.97;5052892;28;20052;-69
2022/08/12 04:14:47;;;;;;;7.78;5.07;;;;;;;19.52;100.00;101909.06;5053160;28;20124;-69
2022/08/12 04:17:14;;;;;;;8.95;5.07;;;;;;;19.46;100.00;101911.72;5052897;28;20048;-68
2022/08/12 04:19:41;;;;;;;7.43;5.00;;;;;;;19.53;100.00;101912.59;5052936;28;20107;-68
2022/08/12 04:22:06;;;;;;;5.63;4.82;;;;;;;19.49;100.00;101911.75;5052878;28;20025;-68
2022/08/12 04:24:35;;;;;;;6.63;4.72;;;;;;;19.55;100.00;101908.16;5052612;28;20435;-68
2022/08/12 04:27:07;;;;;;;6.75;5.30;;;;;;;19.60;100.00;101908.13;5055411;28;20025;-69
2022/08/12 04:29:33;;;;;;;7.85;5.03;;;;;;;19.62;100.00;101906.34;5057058;28;20029;-69
2022/08/12 04:31:58;;;;;;;5.50;4.65;;;;;;;19.57;100.00;101913.50;5055482;28;20411;-69
2022/08/12 04:34:25;;;;;;;8.00;4.60;;;;;;;19.62;100.00;101914.38;5056944;28;20013;-68
2022/08/12 04:36:52;;;;;;;6.50;4.28;;;;;;;19.68;100.00;101908.97;5056681;28;20032;-68
2022/08/12 04:39:20;;;;;;;11.40;5.30;;;;;;;19.57;100.00;101911.69;5056944;28;20020;-69
2022/08/12 04:41:45;;;;;;;11.70;4.72;;;;;;;19.55;100.00;101906.38;5056937;28;20052;-69
2022/08/12 04:44:10;;;;;;;6.05;4.25;;;;;;;19.58;100.00;101912.59;5056665;28;20032;-68
2022/08/12 04:46:36;;;;;;;5.28;4.78;;;;;;;19.50;100.00;101912.63;5056610;28;20021;-69
2022/08/12 04:49:03;;;;;;;6.97;4.68;;;;;;;19.40;100.00;101914.44;5056538;28;20029;-69
2022/08/12 04:51:29;;;;;;;7.03;4.75;;;;;;;19.35;100.00;101913.56;5056372;28;20075;-69
2022/08/12 04:53:54;;;;;;;10.55;5.00;;;;;;;19.33;100.00;101920.66;5056489;28;20025;-68
2022/08/12 04:56:20;;;;;;;9.93;5.03;;;;;;;19.38;100.00;101924.22;5056311;28;20024;-68
2022/08/12 04:58:45;;;;;;;8.15;4.57;;;;;;;19.39;100.00;101926.00;5056446;28;20372;-69
2022/08/12 05:01:12;;;;;;;8.40;4.38;;;;;;;19.42;100.00;101928.66;5056281;28;20472;-68
2022/08/12 05:03:38;;;;;;;11.68;4.38;;;;;;;19.48;100.00;101925.97;5056114;28;20029;-69
2022/08/12 05:06:04;;;;;;;12.15;5.53;;;;;;;19.40;100.00;101926.88;5056128;28;20116;-69
2022/08/12 05:08:30;;;;;;;7.78;4.25;;;;;;;19.44;100.00;101931.31;5055987;28;20024;-69
2022/08/12 05:10:57;;;;;;;7.53;4.82;;;;;;;19.42;100.00;101925.97;5055992;28;20052;-69
2022/08/12 05:13:26;;;;;;;6.10;4.53;;;;;;;19.40;100.00;101922.44;5056158;28;20053;-68
2022/08/12 05:15:51;;;;;;;7.32;4.75;;;;;;;19.42;100.00;101919.75;5055924;28;20025;-69
2022/08/12 05:18:17;;;;;;;10.95;5.30;;;;;;;19.41;100.00;101934.00;5056011;28;20028;-69
2022/08/12 05:20:43;;;;;;;9.77;5.22;;;;;;;19.38;100.00;101925.13;5055880;28;20021;-68
2022/08/12 05:23:18;;;;;;;7.10;5.13;;;;;;;19.43;100.00;101924.22;5055804;28;20029;-69
2022/08/12 05:25:46;;;;;;;7.63;4.72;;;;;;;19.43;100.00;101930.44;5055828;28;20032;-69
2022/08/12 05:28:13;;;;;;;7.75;4.93;;;;;;;19.54;100.00;101925.94;5055723;28;20028;-69
2022/08/12 05:30:41;;;;;;;8.18;4.72;;;;;;;19.60;100.00;101935.72;5055709;28;20077;-68
2022/08/12 05:33:08;;;;;;;6.47;4.57;;;;;;;19.69;100.00;101933.00;5055615;28;20427;-69
2022/08/12 05:35:39;;;;;;;5.47;4.65;;;;;;;19.75;100.00;101928.53;5054350;28;20571;-69
2022/08/12 05:40:52;;;;;;;10.23;4.80;;;;;;;19.82;100.00;101928.56;5055824;28;20044;-69
2022/08/12 05:43:19;;;;;;;6.55;4.82;;;;;;;19.87;100.00;101932.09;5055479;28;20025;-69
2022/08/12 05:45:45;;;;;;;11.55;5.03;;;;;;;19.87;100.00;101939.19;5055245;28;20017;-69
2022/08/12 05:48:11;;;;;;;12.75;5.40;;;;;;;19.90;100.00;101936.53;5055450;28;20029;-70
2022/08/12 05:50:37;;;;;;;8.63;4.90;;;;;;;19.93;100.00;101940.97;5055126;28;20028;-69
2022/08/12 05:53:02;;;;;;;10.52;5.53;;;;;;;19.95;100.00;101944.50;5055400;28;20388;-68
2022/08/12 05:55:28;;;;;;;8.98;4.90;;;;;;;19.97;100.00;101943.63;5055170;28;20476;-68
2022/08/12 05:57:55;;;;;;;8.00;4.63;;;;;;;20.05;100.00;101944.47;5055260;28;20025;-69
2022/08/12 06:00:25;;;;;;;7.97;4.93;;;;;;;20.11;100.00;101942.66;5055060;28;20021;-69
2022/08/12 06:02:55;;;;;;;15.73;4.55;;;;;;;20.23;100.00;101939.03;5055112;28;20036;-69
2022/08/12 06:05:22;;;;;;;5.82;4.60;;;;;;;20.35;100.00;101946.97;5055037;28;20044;-69
2022/08/12 06:07:48;;;;;;;6.47;4.35;;;;;;;20.41;100.00;101938.03;5054844;28;20122;-68
2022/08/12 06:10:16;;;;;;;9.65;4.90;;;;;;;20.49;100.00;101945.06;5055057;28;20095;-69
2022/08/12 06:12:42;;;;;;;8.48;4.68;;;;;;;20.58;100.00;101941.47;5054828;28;20024;-69
2022/08/12 06:15:07;;;;;;;5.93;4.28;;;;;;;20.66;100.00;101936.03;5053481;28;20029;-68
2022/08/12 06:17:33;;;;;;;7.50;4.20;;;;;;;20.64;100.00;101937.84;5054822;28;20028;-67
2022/08/12 06:19:58;;;;;;;6.72;4.45;;;;;;;20.67;100.00;101937.81;5054954;28;20091;-68
2022/08/12 06:22:25;;;;;;;5.88;4.53;;;;;;;20.75;100.00;101940.47;5054769;28;20496;-68
2022/08/12 06:24:52;;;;;;;8.38;4.05;;;;;;;20.76;100.00;101935.09;5054497;28;20376;-69
2022/08/12 06:27:18;;;;;;;10.13;4.07;;;;;;;20.77;100.00;101934.22;5054508;28;20033;-69
2022/08/12 06:29:43;;;;;;;7.55;4.20;;;;;;;20.83;100.00;101939.50;5054653;28;20028;-69
2022/08/12 06:32:08;;;;;;;10.10;4.50;;;;;;;20.78;100.00;101938.66;5054443;28;20035;-69
2022/08/12 06:34:35;;;;;;;12.90;4.63;;;;;;;20.83;100.00;101928.78;5054234;28;20108;-68
2022/08/12 06:37:00;;;;;;;4.82;4.03;;;;;;;20.84;100.00;101927.03;5054086;28;20044;-67
2022/08/12 06:39:26;;;;;;;9.07;4.95;;;;;;;20.89;100.00;101933.22;5054248;28;20056;-69
2022/08/12 06:44:35;;;;;;;7.47;4.35;;;;;;;20.97;100.00;101931.34;5054308;28;20031;-68
2022/08/12 06:47:00;;;;;;;9.23;4.57;;;;;;;21.01;100.00;101932.19;5054310;28;20017;-69
2022/08/12 06:49:27;;;;;;;10.38;5.60;;;;;;;21.10;100.00;101924.09;5052099;28;20020;-69
2022/08/12 06:51:54;;;;;;;9.02;4.72;;;;;;;21.18;100.00;101927.56;5054214;28;20029;-70
2022/08/12 06:54:20;;;;;;;8.90;4.88;;;;;;;21.26;100.00;101932.84;5054014;28;20056;-70
2022/08/12 06:56:45;;;;;;;6.63;4.95;;;;;;;21.31;100.00;101935.47;5053889;28;20040;-69
2022/08/12 06:59:12;;;;;;;11.05;5.18;;;;;;;21.36;100.00;101933.63;5053031;28;20484;-68
2022/08/12 07:01:38;;;;;;;9.88;5.15;;;;;;;21.40;100.00;101932.69;5053791;28;20032;-68
2022/08/12 07:04:03;;;;;;;7.30;5.18;;;;;;;21.44;100.00;101929.06;5053670;28;20049;-70
2022/08/12 07:06:29;;;;;;;7.15;5.07;;;;;;;21.52;100.00;101927.19;5053901;28;20397;-69
2022/08/12 07:08:54;;;;;;;11.52;5.53;;;;;;;21.60;100.00;101923.59;5053689;28;20365;-68
2022/08/12 07:11:20;;;;;;;8.45;5.80;;;;;;;21.63;100.00;101927.09;5053736;28;20100;-70
2022/08/12 07:13:49;;;;;;;12.50;5.30;;;;;;;21.70;100.00;101927.91;5053856;28;20024;-70
2022/08/12 07:16:17;;;;;;;9.43;5.28;;;;;;;21.73;100.00;101927.84;5053832;28;20379;-69
2022/08/12 07:18:46;;;;;;;7.18;5.30;;;;;;;21.76;100.00;101922.50;5053630;28;20079;-70
2022/08/12 07:21:13;;;;;;;13.07;5.50;;;;;;;21.82;100.00;101926.88;5053602;28;20056;-71
2022/08/12 07:23:40;;;;;;;8.30;4.72;;;;;;;21.87;100.00;101919.66;5053464;28;20094;-69
2022/08/12 07:26:07;;;;;;;11.00;5.60;;;;;;;21.89;100.00;101925.88;5053285;28;20033;-70
2022/08/12 07:28:38;;;;;;;5.30;4.65;;;;;;;21.99;100.00;101929.31;5053465;28;20045;-69
2022/08/12 07:31:07;;;;;;;9.80;4.93;;;;;;;22.10;100.00;101929.16;5053564;28;20032;-69
2022/08/12 07:33:33;;;;;;;10.00;4.18;;;;;;;22.20;100.00;101934.38;5053637;28;20050;-69
2022/08/12 07:36:01;;;;;;;6.53;4.28;;;;;;;22.28;100.00;101930.72;5053358;28;20013;-69
2022/08/12 07:38:41;;;;;;;10.85;4.47;;;;;;;22.38;100.00;101935.94;5053220;28;20388;-70
2022/08/12 07:41:16;;;;;;;16.00;5.05;;;;;;;22.48;100.00;101933.13;5053464;28;20039;-69
2022/08/12 07:43:50;;;;;;;7.50;5.30;;;;;;;22.49;100.00;101935.78;5053299;28;20025;-69
2022/08/12 07:46:22;;;;;;;9.70;5.57;;;;;;;22.56;100.00;101931.19;5053184;28;20163;-70
2022/08/12 07:48:50;;;;;;;6.72;4.75;;;;;;;22.64;100.00;101939.09;5053096;28;20028;-69
2022/08/12 07:51:17;;;;;;;6.70;4.47;;;;;;;22.73;100.00;101936.28;5051889;28;20032;-70
2022/08/12 07:53:44;;;;;;;5.07;3.67;;;;;;;22.83;100.00;101934.31;5053169;28;20033;-69
2022/08/12 07:56:10;;;;;;;8.85;4.38;;;;;;;22.94;100.00;101939.50;5052983;28;20385;-69
2022/08/12 07:58:38;;;;;;;4.88;3.70;;;;;;;23.03;100.00;101936.66;5053089;28;20033;-68
2022/08/12 08:01:11;;;;;;;4.97;4.10;;;;;;;23.13;100.00;101943.66;5052781;28;20074;-69
2022/08/12 08:04:54;;;;;;;6.88;3.42;;;;;;;23.25;100.00;101937.19;5052845;28;20071;-69
2022/08/12 08:06:23;;;;;;;5.90;4.00;;;;;;;23.34;100.00;101939.66;5052813;28;20477;-67
2022/08/12 08:08:48;;;;;;;5.43;3.63;;;;;;;23.41;100.00;101937.75;5052716;28;20528;-69
2022/08/12 08:14:00;;;;;;;9.55;4.25;;;;;;;23.61;100.00;101944.53;5052979;28;20412;-69
2022/08/12 08:16:25;;;;;;;6.63;3.55;;;;;;;23.70;100.00;101939.00;5053031;28;20033;-69
2022/08/12 08:18:52;;;;;;;11.32;4.82;;;;;;;23.72;100.00;101939.81;5052930;28;20067;-69
2022/08/12 08:21:19;;;;;;;9.98;4.65;;;;;;;23.86;100.00;101936.84;5052809;28;20097;-70
2022/08/12 08:26:27;;;;;;;9.85;4.38;;;;;;;24.11;100.00;101941.72;5052713;28;20091;-68
2022/08/12 08:28:53;;;;;;;9.57;4.15;;;;;;;24.22;100.00;101939.66;5052836;28;20021;-69
2022/08/12 08:31:18;;;;;;;6.07;3.80;;;;;;;24.36;96.66;101942.94;5052692;28;20109;-69
2022/08/12 08:33:43;;;;;;;4.13;3.17;;;;;;;24.49;96.05;101954.25;5052776;28;20025;-70
2022/08/12 08:36:09;;;;;;;3.78;3.30;;;;;;;24.57;94.46;101948.72;5051403;28;20025;-69
2022/08/12 08:38:34;;;;;;;9.15;4.50;;;;;;;24.65;92.01;101948.53;5052561;28;20095;-69
2022/08/12 08:43:45;;;;;;;7.10;3.42;;;;;;;24.82;94.69;101942.72;5052947;28;20117;-69
2022/08/12 08:46:10;;;;;;;11.38;3.63;;;;;;;24.91;91.55;101940.69;5052613;28;20072;-68
2022/08/12 08:48:35;;;;;;;7.47;3.92;;;;;;;25.05;91.95;101950.22;5052629;28;20143;-69
2022/08/12 08:51:04;;;;;;;7.38;3.90;;;;;;;25.13;90.81;101937.41;5052632;28;20461;-69
2022/08/12 08:53:30;;;;;;;8.88;4.30;;;;;;;25.22;91.15;101947.06;5052522;28;20025;-70
2022/08/12 08:55:55;;;;;;;7.50;3.92;;;;;;;25.32;87.64;101945.00;5052652;28;20388;-70
2022/08/12 08:58:21;;;;;;;11.13;4.25;;;;;;;25.45;86.66;101940.16;5052532;28;20117;-69
2022/08/12 09:00:50;;;;;;;11.65;4.13;;;;;;;25.56;84.72;101941.63;5052462;28;20028;-71
2022/08/12 09:03:16;;;;;;;9.65;3.60;;;;;;;25.64;85.61;101936.03;5052484;28;20100;-69
2022/08/12 09:05:42;;;;;;;7.07;3.40;;;;;;;25.80;85.68;101940.97;5052042;28;20045;-70
2022/08/12 09:08:08;;;;;;;5.85;3.30;;;;;;;25.94;84.83;101944.13;5052241;28;20025;-69
2022/08/12 09:10:33;;;;;;;6.22;2.85;;;;;;;26.12;84.69;101940.00;5052627;28;20082;-70
2022/08/12 09:15:44;;;;;;;5.10;3.50;;;;;;;26.39;83.82;101943.63;5056277;28;20033;-70
2022/08/12 09:18:10;;;;;;;12.57;3.85;;;;;;;26.53;83.28;101945.00;5055883;28;20476;-69
2022/08/12 09:20:37;;;;;;;10.13;3.35;;;;;;;26.67;82.81;101939.13;5055882;28;20082;-68
2022/08/12 09:23:10;;;;;;;10.70;3.20;;;;;;;26.80;82.29;101943.22;5056030;28;20384;-68
2022/08/12 09:25:37;;;;;;;7.95;4.25;;;;;;;26.97;79.34;101931.84;5055717;28;20033;-68
2022/08/12 09:28:03;;;;;;;6.78;3.53;;;;;;;27.15;79.25;101935.72;5055779;28;20025;-70
2022/08/12 09:30:29;;;;;;;4.60;2.97;;;;;;;27.30;78.27;101930.69;5055768;28;20108;-68
2022/08/12 09:32:54;;;;;;;13.13;3.97;;;;;;;27.38;78.40;101921.38;5055498;28;20067;-69
2022/08/12 09:35:23;;;;;;;6.32;3.25;;;;;;;27.52;76.87;101930.81;5055626;28;20108;-69
2022/08/12 09:37:51;;;;;;;7.45;2.65;;;;;;;27.60;76.83;101923.28;5055628;28;20431;-69
2022/08/12 09:40:18;;;;;;;4.72;2.58;;;;;;;27.75;73.10;101922.72;5055599;28;20079;-69
2022/08/12 09:45:31;;;;;;;8.20;2.85;;;;;;;27.99;70.70;101922.69;5055424;28;20392;-69
2022/08/12 09:47:58;;;;;;;7.25;3.20;;;;;;;28.09;71.23;101923.22;5055576;28;20075;-69
2022/08/12 09:50:24;;;;;;;7.93;3.35;;;;;;;28.23;68.73;101919.97;5055395;28;20059;-69
2022/08/12 09:53:04;;;;;;;8.18;3.33;;;;;;;28.33;68.01;101923.19;5055249;28;20043;-69
2022/08/12 09:55:31;;;;;;;5.35;2.92;;;;;;;28.41;68.53;101921.91;5055194;28;20116;-69
2022/08/12 09:57:57;;;;;;;14.38;2.75;;;;;;;28.59;68.66;101922.97;5055123;28;20104;-70
2022/08/12 10:00:24;;;;;;;5.82;2.40;;;;;;;28.74;63.85;101917.88;5055255;28;20128;-69
2022/08/12 10:02:58;;;;;;;9.90;2.88;;;;;;;28.90;63.00;101912.69;5055090;28;20079;-69
2022/08/12 10:05:24;;;;;;;6.32;2.80;;;;;;;29.03;64.77;101907.59;5054901;28;20041;-68
2022/08/12 10:07:49;;;;;;;6.72;3.58;;;;;;;29.15;63.34;101907.03;5054888;28;20036;-69
2022/08/12 10:10:15;;;;;;;10.27;3.33;;;;;;;29.27;63.35;101901.13;5054988;28;20029;-69
2022/08/12 10:15:27;;;;;;;4.90;2.40;;;;;;;29.54;60.53;101898.06;5055243;28;20516;-69
2022/08/12 10:17:53;;;;;;;8.00;2.88;;;;;;;29.63;60.08;101894.06;5054872;28;20048;-69
2022/08/12 10:20:18;;;;;;;10.95;2.67;;;;;;;29.74;56.96;101890.84;5053546;28;20056;-70
2022/08/12 10:22:56;;;;;;;5.28;2.60;;;;;;;29.86;59.13;101897.53;5054695;28;20388;-70
2022/08/12 10:30:51;;;;;;;8.48;2.75;;;;;;;30.25;56.98;101885.66;5054853;28;20102;-69
2022/08/12 10:33:16;;;;;;;8.00;2.70;;;;;;;30.42;58.79;101890.25;5054427;28;20104;-69
2022/08/12 10:35:42;;;;;;;9.63;2.35;;;;;;;30.52;55.97;101880.72;5054473;28;20108;-70
2022/08/12 10:38:10;;;;;;;8.57;2.50;;;;;;;30.66;55.01;101877.28;5054369;28;20056;-69
2022/08/12 10:43:39;;;;;;;6.95;3.17;;;;;;;30.74;54.06;101875.03;5054643;28;20392;-69
2022/08/12 10:43:42;;;;;;;5.95;2.50;;;;;;;30.82;53.74;101874.66;5054372;28;20481;-70
2022/08/12 10:46:17;;;;;;;6.47;2.60;;;;;;;30.94;55.12;101875.81;5054240;28;20016;-70
2022/08/12 10:48:47;;;;;;;8.90;2.42;;;;;;;31.03;52.77;101874.50;5054259;28;20036;-70
2022/08/12 10:51:13;;;;;;;4.60;2.50;;;;;;;31.20;51.83;101877.19;5054231;28;20027;-70
2022/08/12 10:53:40;;;;;;;9.13;2.70;;;;;;;31.38;52.75;101869.84;5054156;28;20029;-69
2022/08/12 10:56:06;;;;;;;5.68;2.40;;;;;;;31.45;51.92;101862.22;5053978;28;20027;-69
2022/08/12 10:58:35;;;;;;;9.93;2.53;;;;;;;31.59;51.54;101867.81;5053964;28;20040;-70
2022/08/12 11:01:04;;;;;;;3.97;2.35;;;;;;;31.75;46.95;101866.94;5053932;28;20024;-70
2022/08/12 11:03:35;;;;;;;3.83;2.08;;;;;;;31.90;46.58;101862.44;5053944;28;20037;-69
2022/08/12 11:06:05;;;;;;;7.10;2.00;;;;;;;32.08;44.64;101869.56;5053670;28;20041;-70
2022/08/12 11:08:31;;;;;;;6.93;2.08;;;;;;;32.22;42.04;101860.59;5053713;28;20021;-70
2022/08/12 11:10:56;;;;;;;6.55;2.22;;;;;;;32.30;40.29;101854.72;5053793;28;20025;-68
2022/08/12 11:13:22;;;;;;;6.32;2.40;;;;;;;32.41;40.74;101854.94;5053746;28;20028;-69
2022/08/12 11:15:47;;;;;;;5.78;2.47;;;;;;;32.35;38.50;101849.84;5053718;28;20036;-69
2022/08/12 11:18:13;;;;;;;5.28;2.60;;;;;;;32.54;41.30;101851.47;5053701;28;20021;-69
2022/08/12 11:20:39;;;;;;;7.43;2.30;;;;;;;32.66;40.83;101842.53;5053594;28;20082;-69
2022/08/12 11:23:04;;;;;;;6.38;1.80;;;;;;;32.93;35.21;101841.84;5053614;28;20041;-69
2022/08/12 11:25:30;;;;;;;4.78;1.88;;;;;;;33.20;34.39;101836.50;5053382;28;20078;-68
2022/08/12 11:27:56;;;;;;;3.17;1.98;;;;;;;33.49;33.58;101833.75;5053493;28;20033;-68
2022/08/12 11:30:21;;;;;;;3.90;1.80;;;;;;;33.77;32.05;101834.69;5052478;28;20400;-69
2022/08/12 11:32:46;;;;;;;4.50;2.00;;;;;;;34.03;32.55;101829.38;5053503;28;20386;-69
2022/08/12 11:35:12;;;;;;;11.80;2.63;;;;;;;34.17;32.57;101825.69;5053098;28;20166;-69
2022/08/12 11:37:39;;;;;;;2.75;1.77;;;;;;;34.44;29.68;101821.09;5052030;28;20013;-68
2022/08/12 11:40:06;;;;;;;4.53;2.00;;;;;;;34.58;28.64;101820.13;5053253;28;20381;-69
2022/08/12 11:42:31;;;;;;;6.10;1.75;;;;;;;34.58;28.92;101809.19;5053505;28;20029;-69
2022/08/12 11:44:57;;;;;;;4.03;2.20;;;;;;;34.90;27.78;101806.03;5053172;28;20021;-69
2022/08/12 11:47:22;;;;;;;7.32;2.20;;;;;;;35.03;29.62;101814.25;5053304;28;20051;-69
2022/08/12 11:49:48;;;;;;;8.93;2.17;;;;;;;35.22;29.20;101808.31;5053193;28;20452;-69
2022/08/12 11:52:13;;;;;;;4.70;2.42;;;;;;;35.45;30.18;101819.47;5053131;28;20067;-68
2022/08/12 11:54:38;;;;;;;6.15;2.00;;;;;;;35.45;27.15;101814.00;5051753;28;20086;-68
2022/08/12 11:57:04;;;;;;;6.57;1.90;;;;;;;35.61;27.72;101809.13;5053127;28;20058;-68
2022/08/12 11:59:31;;;;;;;6.80;2.00;;;;;;;35.78;26.63;101812.44;5051762;28;20105;-68
2022/08/12 12:01:56;;;;;;;4.43;2.45;;;;;;;35.83;26.64;101815.75;5053065;28;20112;-68
2022/08/12 12:04:22;;;;;;;4.82;2.10;;;;;;;35.85;26.70;101807.41;5052873;28;20072;-69
2022/08/12 12:06:47;;;;;;;5.45;2.53;;;;;;;35.94;27.13;101813.06;5053111;28;20025;-69
2022/08/12 12:09:12;;;;;;;8.98;1.98;;;;;;;36.11;24.96;101802.66;5052802;28;20422;-69
2022/08/12 12:11:38;;;;;;;8.00;1.95;;;;;;;36.09;26.10;101807.41;5052945;28;20528;-69
2022/08/12 12:14:04;;;;;;;5.80;2.10;;;;;;;36.34;26.65;101811.00;5052926;28;20025;-69
2022/08/12 12:16:29;;;;;;;6.47;2.30;;;;;;;36.49;25.76;101808.94;5052984;28;20078;-69
2022/08/12 12:18:54;;;;;;;3.45;1.80;;;;;;;36.61;26.09;101802.47;5051602;28;20017;-68
2022/08/12 12:21:20;;;;;;;4.57;2.22;;;;;;;36.77;23.78;101807.63;5051673;28;20464;-68
2022/08/12 12:23:45;;;;;;;5.32;1.83;;;;;;;36.73;23.76;101795.16;5052837;28;20033;-69
2022/08/12 12:26:11;;;;;;;4.93;1.88;;;;;;;36.92;23.63;101798.16;5052651;28;20103;-69
2022/08/12 12:28:40;;;;;;;5.68;2.30;;;;;;;36.94;22.63;101785.22;5052830;28;20032;-69
2022/08/12 12:31:05;;;;;;;7.55;2.28;;;;;;;36.95;23.30;101784.22;5052945;28;20476;-67
2022/08/12 12:33:31;;;;;;;4.15;1.55;;;;;;;37.23;21.58;101781.94;5052787;28;20021;-68
2022/08/12 12:35:56;;;;;;;4.15;1.85;;;;;;;37.35;21.88;101779.25;5052703;28;20092;-69
2022/08/12 12:38:22;;;;;;;4.72;1.67;;;;;;;37.40;20.72;101782.44;5052597;28;20520;-68
2022/08/12 12:40:48;;;;;;;4.93;2.03;;;;;;;37.32;21.84;101774.88;5052622;28;20112;-69
2022/08/12 12:43:14;;;;;;;6.50;1.77;;;;;;;37.37;22.63;101771.72;5052710;28;20095;-69
2022/08/12 12:45:41;;;;;;;8.25;2.08;;;;;;;37.52;22.24;101773.19;5052578;28;20017;-68
2022/08/12 12:48:09;;;;;;;5.70;2.28;;;;;;;37.73;21.66;101773.25;5055141;28;20040;-69
2022/08/12 12:51:15;;;;;;;5.97;2.13;;;;;;;37.65;21.60;101769.44;5056578;28;20500;-68
2022/08/12 12:53:45;;;;;;;5.55;1.90;;;;;;;37.74;20.30;101760.38;5056784;28;20110;-68
2022/08/12 12:56:21;;;;;;;2.75;2.10;;;;;;;37.74;21.71;101765.88;5056502;28;20017;-68
2022/08/12 12:58:51;;;;;;;4.78;1.95;;;;;;;37.72;21.98;101763.25;5056381;28;20029;-69
2022/08/12 13:01:24;;;;;;;4.03;1.90;;;;;;;38.06;22.09;101762.28;5056315;28;20029;-70
2022/08/12 13:03:53;;;;;;;4.85;1.67;;;;;;;38.45;20.33;101757.09;5056233;28;20029;-68
2022/08/12 13:06:24;;;;;;;8.00;2.10;;;;;;;38.46;20.13;101756.09;5056261;28;20045;-69
2022/08/12 13:08:50;;;;;;;7.70;1.92;;;;;;;37.96;20.17;101756.72;5056120;28;20025;-69
2022/08/12 13:11:17;;;;;;;7.55;2.15;;;;;;;38.09;22.10;101759.25;5056179;28;20083;-68